Las horas y fechas están en horario UTC
Sumar 1 hora en el horario de invierno y 2 en el de verano

Informes METAR cercanos

 

LEZL - Sevilla (civ/Mil, Spain
Distance from station: NNE 24km
Actualización: 25/03/2017 00:30
Few Clouds
Few Clouds
 Viento del SSE
Viento: SSE 7 km/h
Temperatura: 8°C
Wind Chill: 7°C
Rocío: 5°C
Humedad: 82%
Barómetro: 1016 hPa
Clouds: Few Clouds
Visibility: 10 km
Cloud details: Few Clouds 1372 m
2017/03/24 23:30 LEZL 242330Z 16004KT 9999 FEW045 08/05 Q1016 NOSIG
LEMO - Moron (sp-Usafb), Spain
Distance from station: E 38km
Actualización: 25/03/2017 00:00
Few Clouds
Few Clouds
 Viento del S
Viento: S 11 km/h
Temperatura: 6°C
Wind Chill: 4°C
Rocío: 4°C
Humedad: 87%
Barómetro: 1017 hPa
Clouds: Few Clouds
Visibility: 10 km
Cloud details: Few Clouds 1036 m
2017/03/24 23:00 LEMO 242300Z 18006KT 9999 FEW034 06/04 Q1017 NOSIG
LEJR - Jerez (civ/Mil), Spain
Distance from station: S 53km
Actualización: 25/03/2017 00:30
Despejado
Despejado
 Viento del varies
Viento: varies 2 km/h
Temperatura: 7°C
Rocío: 5°C
Humedad: 87%
Barómetro: 1016 hPa
Clouds: Despejado
Visibility: 10 km
2017/03/24 23:30 LEJR 242330Z AUTO VRB01KT 9999 NCD 07/05 Q1016
 
LERT - Rota Naval Stati, Spain
Distance from station: SSO 71km
Actualización: 25/03/2017 00:00
Few Clouds
Few Clouds
 Viento del SSO
Viento: SSO 13 km/h
Temperatura: 11°C
Rocío: 4°C
Humedad: 62%
Barómetro: 1016 hPa
Clouds: Few Clouds
Visibility: 10 km
Cloud details: Few Clouds 1006 m
2017/03/24 23:00 LERT 242300Z 21007KT 9999 FEW033 11/04 Q1016 NOSIG
LEBA - Cordoba Airport, Spain
Distance from station: ENE 128km
Actualización: 25/03/2017 00:30
Despejado
Despejado
 Viento del ONO
Viento: ONO 4 km/h
Temperatura: 6°C
Rocío: 3°C
Humedad: 81%
Barómetro: 1017 hPa
Clouds: Despejado
Visibility: 10 km
2017/03/24 23:30 LEBA 242330Z AUTO 29002KT 9999 NCD 06/03 Q1017
LXGB - Gibraltar (civ/M, Gibraltar
Distance from station: SSE 137km
Actualización: 24/03/2017 23:50
Parcialmente nuboso
Parcialmente nuboso
 Viento del OSO
Viento: OSO 11 km/h
Temperatura: 10°C
Wind Chill: 8°C
Rocío: 8°C
Humedad: 88%
Barómetro: 1018 hPa
Clouds: Parcialmente nuboso
Visibility: 10 km
Cloud details: Parcialmente nuboso 610 m
Parcialmente nuboso 1524 m
2017/03/24 22:50 LXGB 242250Z AUTO 25006KT 9999 // SCT020/// SCT050/// 10/08 Q1018
 
LEMG - Malaga (civ/Mil), Spain
Distance from station: ESE 150km
Actualización: 25/03/2017 00:30
Despejado
Despejado
 Viento del O
Viento: O 7 km/h
Temperatura: 7°C
Wind Chill: 6°C
Rocío: 4°C
Humedad: 81%
Barómetro: 1017 hPa
Resumen: Despejado
Visibility: greater than 10 km
2017/03/24 23:30 LEMG 242330Z 27004KT 230V300 CAVOK 07/04 Q1017 NOSIG
GMTT - Tangier/Boukhalf, Morocco
Distance from station: S 169km
Actualización: 25/03/2017 00:30
Lluvia débil, Muy nuboso
Lluvia débil, Muy nuboso
 Viento del S
Viento: S 24 km/h
Temperatura: 9°C
Wind Chill: 6°C
Rocío: 6°C
Humedad: 82%
Barómetro: 1018 hPa
Resumen: Lluvia débil
Clouds: Muy nuboso
Visibility: 5 km
Cloud details: Few Clouds 244 m
Muy nuboso 488 m
2017/03/24 23:30 GMTT 242330Z 19013KT 5000 -RA FEW008 BKN016 09/06 Q1018 NOSIG
LPFR - Faro, Portugal
Distance from station: O 172km
Actualización: 25/03/2017 00:30
Lluvia débil, Showers, Parcialmente nuboso
Lluvia débil, Showers, Parcialmente nuboso
 Viento del SSO
Viento: SSO 31 km/h
Temperatura: 13°C
Rocío: 7°C
Humedad: 67%
Barómetro: 1014 hPa
Resumen: Lluvia débil, Showers
Clouds: Parcialmente nuboso
Visibility: 10 km
Cloud details: Parcialmente nuboso 914 m
Few Clouds 1067 m
Parcialmente nuboso 1463 m
2017/03/24 23:30 LPFR 242330Z 21017KT 9999 -SHRA SCT030 FEW035CB SCT048 13/07 Q1014
 
LPBJ - Beja (por/Ger-Af, Portugal
Distance from station: ONO 192km
Actualización: 25/03/2017 00:00
Lluvia débil, Muy nuboso
Lluvia débil, Muy nuboso
 Viento del SSE
Viento: SSE 20 km/h
Temperatura: 7°C
Wind Chill: 4°C
Rocío: 6°C
Humedad: 93%
Barómetro: 1013 hPa
Resumen: Lluvia débil
Clouds: Muy nuboso
Visibility: 10 km
Cloud details: Muy nuboso 732 m
2017/03/24 23:00 LPBJ 242300Z 16011KT 9999 -RA BKN024 07/06 Q1013
LEBZ - Talavera Ab/Bada, Spain
Distance from station: NNO 194km
Actualización: 24/03/2017 21:00
NOT Current
Few Clouds
Few Clouds
 Viento del E
Viento: E 2 km/h
Temperatura: 11°C
Rocío: 2°C
Humedad: 54%
Barómetro: 1013 hPa
Clouds: Few Clouds
Visibility: 10 km
Cloud details: Few Clouds 1463 m
2017/03/24 20:00 LEBZ 242000Z 08001KT 9999 FEW048 11/02 Q1013
LEMD - Madrid/Barajas, Spain
Distance from station: NE 415km
Actualización: 25/03/2017 00:30
Few Clouds
Few Clouds
 Viento del SE
Viento: SE 7 km/h
Temperatura: 1°C
Wind Chill: -2°C
Rocío: 0°C
Humedad: 93%
Barómetro: 1015 hPa
Clouds: Few Clouds
Visibility: 10 km
Cloud details: Few Clouds 213 m
2017/03/24 23:30 LEMD 242330Z 13004KT 9999 FEW007 01/00 Q1015 NOSIG